sensor_id;sensor_type;location;lat;lon;timestamp;P1;durP1;ratioP1;P2;durP2;ratioP2
15878;SDS011;61999;51.514;14.614;2022-11-06T00:00:04;11.10;;;7.70;;
15878;SDS011;61999;51.514;14.614;2022-11-06T00:02:34;9.27;;;8.07;;
15878;SDS011;61999;51.514;14.614;2022-11-06T00:05:02;9.77;;;7.57;;
15878;SDS011;61999;51.514;14.614;2022-11-06T00:07:46;8.97;;;7.53;;
15878;SDS011;61999;51.514;14.614;2022-11-06T00:10:14;10.57;;;8.80;;
15878;SDS011;61999;51.514;14.614;2022-11-06T00:12:43;9.73;;;7.60;;
15878;SDS011;61999;51.514;14.614;2022-11-06T00:15:12;11.40;;;7.93;;
15878;SDS011;61999;51.514;14.614;2022-11-06T00:17:40;10.67;;;8.40;;
15878;SDS011;61999;51.514;14.614;2022-11-06T00:20:08;9.60;;;7.93;;
15878;SDS011;61999;51.514;14.614;2022-11-06T00:22:37;9.73;;;7.80;;
15878;SDS011;61999;51.514;14.614;2022-11-06T00:25:06;11.27;;;8.33;;
15878;SDS011;61999;51.514;14.614;2022-11-06T00:27:36;11.83;;;8.00;;
15878;SDS011;61999;51.514;14.614;2022-11-06T00:30:06;10.80;;;7.90;;
15878;SDS011;61999;51.514;14.614;2022-11-06T00:32:37;12.73;;;8.40;;
15878;SDS011;61999;51.514;14.614;2022-11-06T00:35:06;10.57;;;8.23;;
15878;SDS011;61999;51.514;14.614;2022-11-06T00:37:34;9.33;;;8.00;;
15878;SDS011;61999;51.514;14.614;2022-11-06T00:40:02;10.77;;;7.83;;
15878;SDS011;61999;51.514;14.614;2022-11-06T00:42:32;9.03;;;8.13;;
15878;SDS011;61999;51.514;14.614;2022-11-06T00:45:00;9.23;;;7.60;;
15878;SDS011;61999;51.514;14.614;2022-11-06T00:47:28;9.63;;;7.80;;
15878;SDS011;61999;51.514;14.614;2022-11-06T00:49:56;9.83;;;7.87;;
15878;SDS011;61999;51.514;14.614;2022-11-06T00:52:24;9.10;;;7.17;;
15878;SDS011;61999;51.514;14.614;2022-11-06T00:54:51;8.97;;;6.67;;
15878;SDS011;61999;51.514;14.614;2022-11-06T00:57:19;9.60;;;7.00;;
15878;SDS011;61999;51.514;14.614;2022-11-06T00:59:49;9.70;;;6.87;;
15878;SDS011;61999;51.514;14.614;2022-11-06T01:02:17;6.27;;;5.67;;
15878;SDS011;61999;51.514;14.614;2022-11-06T01:04:46;6.90;;;5.70;;
15878;SDS011;61999;51.514;14.614;2022-11-06T01:07:14;5.87;;;5.37;;
15878;SDS011;61999;51.514;14.614;2022-11-06T01:09:42;8.07;;;6.03;;
15878;SDS011;61999;51.514;14.614;2022-11-06T01:12:10;8.00;;;6.17;;
15878;SDS011;61999;51.514;14.614;2022-11-06T01:14:39;8.57;;;5.73;;
15878;SDS011;61999;51.514;14.614;2022-11-06T01:17:10;7.40;;;6.67;;
15878;SDS011;61999;51.514;14.614;2022-11-06T01:19:38;9.00;;;6.37;;
15878;SDS011;61999;51.514;14.614;2022-11-06T01:22:07;6.60;;;5.70;;
15878;SDS011;61999;51.514;14.614;2022-11-06T01:24:35;6.63;;;5.80;;
15878;SDS011;61999;51.514;14.614;2022-11-06T01:27:03;6.80;;;5.20;;
15878;SDS011;61999;51.514;14.614;2022-11-06T01:29:50;8.83;;;6.20;;
15878;SDS011;61999;51.514;14.614;2022-11-06T01:32:19;8.40;;;5.80;;
15878;SDS011;61999;51.514;14.614;2022-11-06T01:34:47;7.23;;;6.27;;
15878;SDS011;61999;51.514;14.614;2022-11-06T01:37:16;7.30;;;5.83;;
15878;SDS011;61999;51.514;14.614;2022-11-06T01:39:44;7.73;;;5.77;;
15878;SDS011;61999;51.514;14.614;2022-11-06T01:42:12;6.90;;;6.20;;
15878;SDS011;61999;51.514;14.614;2022-11-06T01:48:03;6.57;;;5.80;;
15878;SDS011;61999;51.514;14.614;2022-11-06T01:50:32;8.87;;;6.87;;
15878;SDS011;61999;51.514;14.614;2022-11-06T01:53:00;6.87;;;5.67;;
15878;SDS011;61999;51.514;14.614;2022-11-06T01:55:29;7.00;;;5.57;;
15878;SDS011;61999;51.514;14.614;2022-11-06T01:58:02;7.17;;;5.67;;
15878;SDS011;61999;51.514;14.614;2022-11-06T02:00:33;6.27;;;5.67;;
15878;SDS011;61999;51.514;14.614;2022-11-06T02:03:01;6.37;;;5.13;;
15878;SDS011;61999;51.514;14.614;2022-11-06T02:05:31;7.60;;;5.77;;
15878;SDS011;61999;51.514;14.614;2022-11-06T02:07:59;5.73;;;5.13;;
15878;SDS011;61999;51.514;14.614;2022-11-06T02:10:28;7.33;;;5.67;;
15878;SDS011;61999;51.514;14.614;2022-11-06T02:13:00;6.10;;;5.47;;
15878;SDS011;61999;51.514;14.614;2022-11-06T02:15:44;8.60;;;5.50;;
15878;SDS011;61999;51.514;14.614;2022-11-06T02:18:36;6.27;;;5.53;;
15878;SDS011;61999;51.514;14.614;2022-11-06T02:21:39;7.50;;;5.37;;
15878;SDS011;61999;51.514;14.614;2022-11-06T02:24:50;10.53;;;6.77;;
15878;SDS011;61999;51.514;14.614;2022-11-06T02:27:41;9.23;;;6.33;;
15878;SDS011;61999;51.514;14.614;2022-11-06T02:30:16;11.07;;;7.17;;
15878;SDS011;61999;51.514;14.614;2022-11-06T02:32:46;6.73;;;6.03;;
15878;SDS011;61999;51.514;14.614;2022-11-06T02:35:22;6.87;;;6.07;;
15878;SDS011;61999;51.514;14.614;2022-11-06T02:37:57;10.63;;;6.40;;
15878;SDS011;61999;51.514;14.614;2022-11-06T02:40:31;6.87;;;6.00;;
15878;SDS011;61999;51.514;14.614;2022-11-06T02:43:07;7.87;;;5.97;;
15878;SDS011;61999;51.514;14.614;2022-11-06T02:45:38;6.20;;;5.60;;
15878;SDS011;61999;51.514;14.614;2022-11-06T02:48:12;10.00;;;6.00;;
15878;SDS011;61999;51.514;14.614;2022-11-06T02:50:46;9.17;;;6.30;;
15878;SDS011;61999;51.514;14.614;2022-11-06T02:53:18;11.27;;;6.93;;
15878;SDS011;61999;51.514;14.614;2022-11-06T02:55:52;10.40;;;6.70;;
15878;SDS011;61999;51.514;14.614;2022-11-06T02:58:27;9.07;;;6.80;;
15878;SDS011;61999;51.514;14.614;2022-11-06T03:01:20;7.63;;;5.87;;
15878;SDS011;61999;51.514;14.614;2022-11-06T03:03:58;7.47;;;5.83;;
15878;SDS011;61999;51.514;14.614;2022-11-06T03:06:32;8.53;;;6.40;;
15878;SDS011;61999;51.514;14.614;2022-11-06T03:09:06;7.83;;;6.10;;
15878;SDS011;61999;51.514;14.614;2022-11-06T03:11:40;8.23;;;5.30;;
15878;SDS011;61999;51.514;14.614;2022-11-06T03:14:11;6.57;;;5.67;;
15878;SDS011;61999;51.514;14.614;2022-11-06T03:16:48;6.80;;;4.77;;
15878;SDS011;61999;51.514;14.614;2022-11-06T03:19:24;7.53;;;5.27;;
15878;SDS011;61999;51.514;14.614;2022-11-06T03:21:59;6.00;;;5.40;;
15878;SDS011;61999;51.514;14.614;2022-11-06T03:24:37;7.10;;;5.17;;
15878;SDS011;61999;51.514;14.614;2022-11-06T03:27:13;7.33;;;5.30;;
15878;SDS011;61999;51.514;14.614;2022-11-06T03:29:50;5.97;;;4.97;;
15878;SDS011;61999;51.514;14.614;2022-11-06T03:32:29;7.03;;;4.97;;
15878;SDS011;61999;51.514;14.614;2022-11-06T03:35:05;7.87;;;4.77;;
15878;SDS011;61999;51.514;14.614;2022-11-06T03:37:41;8.40;;;5.50;;
15878;SDS011;61999;51.514;14.614;2022-11-06T03:40:16;7.33;;;5.53;;
15878;SDS011;61999;51.514;14.614;2022-11-06T03:42:49;8.90;;;4.93;;
15878;SDS011;61999;51.514;14.614;2022-11-06T03:45:25;7.20;;;5.00;;
15878;SDS011;61999;51.514;14.614;2022-11-06T03:47:58;7.50;;;4.77;;
15878;SDS011;61999;51.514;14.614;2022-11-06T03:50:35;6.37;;;5.07;;
15878;SDS011;61999;51.514;14.614;2022-11-06T03:53:13;8.30;;;5.47;;
15878;SDS011;61999;51.514;14.614;2022-11-06T03:55:50;7.37;;;4.83;;
15878;SDS011;61999;51.514;14.614;2022-11-06T03:58:28;5.83;;;5.20;;
15878;SDS011;61999;51.514;14.614;2022-11-06T04:01:06;6.47;;;4.80;;
15878;SDS011;61999;51.514;14.614;2022-11-06T04:03:38;6.40;;;4.50;;
15878;SDS011;61999;51.514;14.614;2022-11-06T04:06:15;6.87;;;4.80;;
15878;SDS011;61999;51.514;14.614;2022-11-06T04:08:49;8.60;;;5.53;;
15878;SDS011;61999;51.514;14.614;2022-11-06T04:11:54;8.77;;;5.80;;
15878;SDS011;61999;51.514;14.614;2022-11-06T04:14:44;7.67;;;5.00;;
15878;SDS011;61999;51.514;14.614;2022-11-06T04:17:19;6.83;;;5.20;;
15878;SDS011;61999;51.514;14.614;2022-11-06T04:19:53;8.47;;;5.37;;
15878;SDS011;61999;51.514;14.614;2022-11-06T04:22:30;5.80;;;5.13;;
15878;SDS011;61999;51.514;14.614;2022-11-06T04:25:17;6.07;;;4.87;;
15878;SDS011;61999;51.514;14.614;2022-11-06T04:28:33;7.37;;;4.80;;
15878;SDS011;61999;51.514;14.614;2022-11-06T04:31:15;8.23;;;5.57;;
15878;SDS011;61999;51.514;14.614;2022-11-06T04:34:00;6.03;;;5.07;;
15878;SDS011;61999;51.514;14.614;2022-11-06T04:36:41;7.43;;;5.83;;
15878;SDS011;61999;51.514;14.614;2022-11-06T04:39:17;7.87;;;5.90;;
15878;SDS011;61999;51.514;14.614;2022-11-06T04:41:57;7.43;;;5.90;;
15878;SDS011;61999;51.514;14.614;2022-11-06T04:44:33;8.50;;;6.27;;
15878;SDS011;61999;51.514;14.614;2022-11-06T04:47:06;7.33;;;5.90;;
15878;SDS011;61999;51.514;14.614;2022-11-06T04:49:42;9.00;;;6.60;;
15878;SDS011;61999;51.514;14.614;2022-11-06T04:52:11;10.30;;;7.97;;
15878;SDS011;61999;51.514;14.614;2022-11-06T04:54:46;7.97;;;5.93;;
15878;SDS011;61999;51.514;14.614;2022-11-06T04:57:14;9.03;;;5.93;;
15878;SDS011;61999;51.514;14.614;2022-11-06T04:59:42;8.20;;;6.17;;
15878;SDS011;61999;51.514;14.614;2022-11-06T05:02:10;9.80;;;7.10;;
15878;SDS011;61999;51.514;14.614;2022-11-06T05:04:38;11.07;;;7.60;;
15878;SDS011;61999;51.514;14.614;2022-11-06T05:07:07;7.63;;;5.60;;
15878;SDS011;61999;51.514;14.614;2022-11-06T05:09:35;6.83;;;5.77;;
15878;SDS011;61999;51.514;14.614;2022-11-06T05:12:03;6.27;;;5.03;;
15878;SDS011;61999;51.514;14.614;2022-11-06T05:14:32;7.43;;;5.20;;
15878;SDS011;61999;51.514;14.614;2022-11-06T05:17:00;6.83;;;5.23;;
15878;SDS011;61999;51.514;14.614;2022-11-06T05:19:28;7.17;;;5.40;;
15878;SDS011;61999;51.514;14.614;2022-11-06T05:21:56;8.07;;;5.83;;
15878;SDS011;61999;51.514;14.614;2022-11-06T05:24:42;6.00;;;4.93;;
15878;SDS011;61999;51.514;14.614;2022-11-06T05:27:10;4.33;;;3.93;;
15878;SDS011;61999;51.514;14.614;2022-11-06T05:29:38;6.93;;;4.40;;
15878;SDS011;61999;51.514;14.614;2022-11-06T05:32:06;5.83;;;4.93;;
15878;SDS011;61999;51.514;14.614;2022-11-06T05:34:34;6.97;;;4.43;;
15878;SDS011;61999;51.514;14.614;2022-11-06T05:37:02;4.97;;;4.23;;
15878;SDS011;61999;51.514;14.614;2022-11-06T05:39:30;5.00;;;4.43;;
15878;SDS011;61999;51.514;14.614;2022-11-06T05:42:01;5.30;;;4.47;;
15878;SDS011;61999;51.514;14.614;2022-11-06T05:44:29;6.37;;;4.77;;
15878;SDS011;61999;51.514;14.614;2022-11-06T05:46:57;7.43;;;4.30;;
15878;SDS011;61999;51.514;14.614;2022-11-06T05:49:25;5.43;;;4.30;;
15878;SDS011;61999;51.514;14.614;2022-11-06T05:51:52;4.37;;;3.53;;
15878;SDS011;61999;51.514;14.614;2022-11-06T05:54:20;4.60;;;4.13;;
15878;SDS011;61999;51.514;14.614;2022-11-06T05:56:49;4.80;;;4.00;;
15878;SDS011;61999;51.514;14.614;2022-11-06T05:59:18;4.87;;;4.03;;
15878;SDS011;61999;51.514;14.614;2022-11-06T06:01:46;4.43;;;4.03;;
15878;SDS011;61999;51.514;14.614;2022-11-06T06:04:14;5.13;;;4.43;;
15878;SDS011;61999;51.514;14.614;2022-11-06T06:06:42;6.90;;;4.10;;
15878;SDS011;61999;51.514;14.614;2022-11-06T06:09:10;4.57;;;4.07;;
15878;SDS011;61999;51.514;14.614;2022-11-06T06:11:38;4.67;;;4.17;;
15878;SDS011;61999;51.514;14.614;2022-11-06T06:14:06;6.07;;;4.37;;
15878;SDS011;61999;51.514;14.614;2022-11-06T06:16:36;5.60;;;4.47;;
15878;SDS011;61999;51.514;14.614;2022-11-06T06:19:03;6.43;;;4.20;;
15878;SDS011;61999;51.514;14.614;2022-11-06T06:21:31;5.23;;;4.20;;
15878;SDS011;61999;51.514;14.614;2022-11-06T06:23:59;5.33;;;3.80;;
15878;SDS011;61999;51.514;14.614;2022-11-06T06:26:27;4.33;;;3.93;;
15878;SDS011;61999;51.514;14.614;2022-11-06T06:28:55;5.73;;;4.23;;
15878;SDS011;61999;51.514;14.614;2022-11-06T06:31:23;5.80;;;3.70;;
15878;SDS011;61999;51.514;14.614;2022-11-06T06:33:53;3.90;;;3.50;;
15878;SDS011;61999;51.514;14.614;2022-11-06T06:36:21;4.27;;;3.87;;
15878;SDS011;61999;51.514;14.614;2022-11-06T06:38:49;5.60;;;3.70;;
15878;SDS011;61999;51.514;14.614;2022-11-06T06:41:17;4.70;;;4.00;;
15878;SDS011;61999;51.514;14.614;2022-11-06T06:43:46;5.63;;;4.53;;
15878;SDS011;61999;51.514;14.614;2022-11-06T06:46:15;5.00;;;4.50;;
15878;SDS011;61999;51.514;14.614;2022-11-06T06:48:43;5.83;;;4.50;;
15878;SDS011;61999;51.514;14.614;2022-11-06T06:51:12;5.97;;;4.47;;
15878;SDS011;61999;51.514;14.614;2022-11-06T06:53:42;5.53;;;4.37;;
15878;SDS011;61999;51.514;14.614;2022-11-06T06:56:10;6.17;;;4.90;;
15878;SDS011;61999;51.514;14.614;2022-11-06T06:58:38;5.50;;;4.57;;
15878;SDS011;61999;51.514;14.614;2022-11-06T07:01:06;7.77;;;5.40;;
15878;SDS011;61999;51.514;14.614;2022-11-06T07:03:37;5.60;;;5.10;;
15878;SDS011;61999;51.514;14.614;2022-11-06T07:06:05;7.27;;;5.80;;
15878;SDS011;61999;51.514;14.614;2022-11-06T07:08:35;7.60;;;5.97;;
15878;SDS011;61999;51.514;14.614;2022-11-06T07:11:04;6.17;;;5.57;;
15878;SDS011;61999;51.514;14.614;2022-11-06T07:13:34;6.30;;;5.70;;
15878;SDS011;61999;51.514;14.614;2022-11-06T07:16:03;8.30;;;6.27;;
15878;SDS011;61999;51.514;14.614;2022-11-06T07:18:33;8.93;;;7.43;;
15878;SDS011;61999;51.514;14.614;2022-11-06T07:21:02;7.87;;;6.47;;
15878;SDS011;61999;51.514;14.614;2022-11-06T07:23:32;8.17;;;6.27;;
15878;SDS011;61999;51.514;14.614;2022-11-06T07:26:02;8.83;;;7.10;;
15878;SDS011;61999;51.514;14.614;2022-11-06T07:28:31;9.50;;;7.00;;
15878;SDS011;61999;51.514;14.614;2022-11-06T07:31:00;11.27;;;7.30;;
15878;SDS011;61999;51.514;14.614;2022-11-06T07:33:30;7.60;;;6.53;;
15878;SDS011;61999;51.514;14.614;2022-11-06T07:36:02;8.87;;;7.07;;
15878;SDS011;61999;51.514;14.614;2022-11-06T07:38:32;10.07;;;5.67;;
15878;SDS011;61999;51.514;14.614;2022-11-06T07:41:03;4.67;;;4.23;;
15878;SDS011;61999;51.514;14.614;2022-11-06T07:43:34;5.30;;;4.57;;
15878;SDS011;61999;51.514;14.614;2022-11-06T07:46:03;5.70;;;5.00;;
15878;SDS011;61999;51.514;14.614;2022-11-06T07:48:34;5.67;;;4.80;;
15878;SDS011;61999;51.514;14.614;2022-11-06T07:51:02;6.20;;;3.90;;
15878;SDS011;61999;51.514;14.614;2022-11-06T07:53:34;7.17;;;4.23;;
15878;SDS011;61999;51.514;14.614;2022-11-06T07:56:02;5.87;;;4.40;;
15878;SDS011;61999;51.514;14.614;2022-11-06T07:58:31;5.47;;;4.47;;
15878;SDS011;61999;51.514;14.614;2022-11-06T08:01:00;6.10;;;4.60;;
15878;SDS011;61999;51.514;14.614;2022-11-06T08:03:28;5.90;;;4.23;;
15878;SDS011;61999;51.514;14.614;2022-11-06T08:05:57;4.50;;;3.90;;
15878;SDS011;61999;51.514;14.614;2022-11-06T08:08:26;5.10;;;4.33;;
15878;SDS011;61999;51.514;14.614;2022-11-06T08:10:56;4.73;;;4.03;;
15878;SDS011;61999;51.514;14.614;2022-11-06T08:13:28;4.00;;;3.67;;
15878;SDS011;61999;51.514;14.614;2022-11-06T08:15:56;4.90;;;3.90;;
15878;SDS011;61999;51.514;14.614;2022-11-06T08:18:24;6.70;;;3.77;;
15878;SDS011;61999;51.514;14.614;2022-11-06T08:20:52;5.13;;;4.10;;
15878;SDS011;61999;51.514;14.614;2022-11-06T08:23:20;5.30;;;3.60;;
15878;SDS011;61999;51.514;14.614;2022-11-06T08:25:48;4.40;;;4.00;;
15878;SDS011;61999;51.514;14.614;2022-11-06T08:28:17;5.83;;;4.37;;
15878;SDS011;61999;51.514;14.614;2022-11-06T08:30:45;7.67;;;5.10;;
15878;SDS011;61999;51.514;14.614;2022-11-06T08:33:13;7.70;;;4.30;;
15878;SDS011;61999;51.514;14.614;2022-11-06T08:35:40;6.57;;;4.13;;
15878;SDS011;61999;51.514;14.614;2022-11-06T08:38:08;6.07;;;3.73;;
15878;SDS011;61999;51.514;14.614;2022-11-06T08:40:37;5.10;;;3.90;;
15878;SDS011;61999;51.514;14.614;2022-11-06T08:43:07;4.57;;;3.80;;
15878;SDS011;61999;51.514;14.614;2022-11-06T08:45:38;7.10;;;3.80;;
15878;SDS011;61999;51.514;14.614;2022-11-06T08:48:09;5.77;;;4.00;;
15878;SDS011;61999;51.514;14.614;2022-11-06T08:50:38;5.73;;;4.10;;
15878;SDS011;61999;51.514;14.614;2022-11-06T08:53:07;6.23;;;4.57;;
15878;SDS011;61999;51.514;14.614;2022-11-06T08:55:36;7.67;;;4.30;;
15878;SDS011;61999;51.514;14.614;2022-11-06T08:58:05;5.33;;;3.90;;
15878;SDS011;61999;51.514;14.614;2022-11-06T09:00:34;7.23;;;4.33;;
15878;SDS011;61999;51.514;14.614;2022-11-06T09:03:05;5.23;;;3.50;;
15878;SDS011;61999;51.514;14.614;2022-11-06T09:05:37;6.67;;;3.60;;
15878;SDS011;61999;51.514;14.614;2022-11-06T09:08:06;4.73;;;3.20;;
15878;SDS011;61999;51.514;14.614;2022-11-06T09:10:36;5.20;;;4.07;;
15878;SDS011;61999;51.514;14.614;2022-11-06T09:13:06;4.50;;;3.90;;
15878;SDS011;61999;51.514;14.614;2022-11-06T09:15:34;4.70;;;3.80;;
15878;SDS011;61999;51.514;14.614;2022-11-06T09:18:04;4.30;;;3.90;;
15878;SDS011;61999;51.514;14.614;2022-11-06T09:20:33;4.60;;;3.67;;
15878;SDS011;61999;51.514;14.614;2022-11-06T09:23:01;4.73;;;3.87;;
15878;SDS011;61999;51.514;14.614;2022-11-06T09:25:32;8.07;;;4.73;;
15878;SDS011;61999;51.514;14.614;2022-11-06T09:28:00;7.27;;;4.50;;
15878;SDS011;61999;51.514;14.614;2022-11-06T09:30:29;4.57;;;3.70;;
15878;SDS011;61999;51.514;14.614;2022-11-06T09:32:59;4.97;;;4.07;;
15878;SDS011;61999;51.514;14.614;2022-11-06T09:35:31;4.20;;;3.63;;
15878;SDS011;61999;51.514;14.614;2022-11-06T09:38:00;4.23;;;3.40;;
15878;SDS011;61999;51.514;14.614;2022-11-06T09:40:31;3.83;;;3.37;;
15878;SDS011;61999;51.514;14.614;2022-11-06T09:43:09;3.97;;;3.27;;
15878;SDS011;61999;51.514;14.614;2022-11-06T09:46:03;4.97;;;3.83;;
15878;SDS011;61999;51.514;14.614;2022-11-06T09:48:44;4.70;;;4.30;;
15878;SDS011;61999;51.514;14.614;2022-11-06T09:51:22;4.40;;;3.60;;
15878;SDS011;61999;51.514;14.614;2022-11-06T09:54:03;6.10;;;4.23;;
15878;SDS011;61999;51.514;14.614;2022-11-06T09:56:40;4.17;;;3.77;;
15878;SDS011;61999;51.514;14.614;2022-11-06T09:59:12;7.50;;;4.40;;
15878;SDS011;61999;51.514;14.614;2022-11-06T10:01:45;5.83;;;4.50;;
15878;SDS011;61999;51.514;14.614;2022-11-06T10:07:21;5.10;;;4.00;;
15878;SDS011;61999;51.514;14.614;2022-11-06T10:09:55;4.33;;;3.60;;
15878;SDS011;61999;51.514;14.614;2022-11-06T10:12:26;3.97;;;3.57;;
15878;SDS011;61999;51.514;14.614;2022-11-06T10:15:06;3.57;;;3.17;;
15878;SDS011;61999;51.514;14.614;2022-11-06T10:17:50;3.40;;;3.07;;
15878;SDS011;61999;51.514;14.614;2022-11-06T10:20:31;4.63;;;3.67;;
15878;SDS011;61999;51.514;14.614;2022-11-06T10:23:15;4.23;;;3.53;;
15878;SDS011;61999;51.514;14.614;2022-11-06T10:25:53;3.83;;;3.53;;
15878;SDS011;61999;51.514;14.614;2022-11-06T10:28:38;3.83;;;3.30;;
15878;SDS011;61999;51.514;14.614;2022-11-06T10:31:29;2.93;;;2.73;;
15878;SDS011;61999;51.514;14.614;2022-11-06T10:34:09;3.40;;;3.10;;
15878;SDS011;61999;51.514;14.614;2022-11-06T10:36:44;4.50;;;3.57;;
15878;SDS011;61999;51.514;14.614;2022-11-06T10:39:20;2.93;;;2.73;;
15878;SDS011;61999;51.514;14.614;2022-11-06T10:41:56;4.00;;;2.90;;
15878;SDS011;61999;51.514;14.614;2022-11-06T10:44:30;4.50;;;3.80;;
15878;SDS011;61999;51.514;14.614;2022-11-06T10:47:07;4.33;;;3.93;;
15878;SDS011;61999;51.514;14.614;2022-11-06T10:49:45;4.07;;;3.70;;
15878;SDS011;61999;51.514;14.614;2022-11-06T10:52:22;3.23;;;2.97;;
15878;SDS011;61999;51.514;14.614;2022-11-06T10:58:14;4.07;;;3.70;;
15878;SDS011;61999;51.514;14.614;2022-11-06T11:00:47;4.73;;;3.00;;
15878;SDS011;61999;51.514;14.614;2022-11-06T11:03:16;3.50;;;3.20;;
15878;SDS011;61999;51.514;14.614;2022-11-06T11:05:52;4.00;;;3.53;;
15878;SDS011;61999;51.514;14.614;2022-11-06T11:08:31;4.23;;;3.27;;
15878;SDS011;61999;51.514;14.614;2022-11-06T11:11:17;5.80;;;4.50;;
15878;SDS011;61999;51.514;14.614;2022-11-06T11:13:49;8.53;;;7.60;;
15878;SDS011;61999;51.514;14.614;2022-11-06T11:16:39;4.70;;;4.20;;
15878;SDS011;61999;51.514;14.614;2022-11-06T11:19:22;5.47;;;4.27;;
15878;SDS011;61999;51.514;14.614;2022-11-06T11:21:59;3.97;;;3.57;;
15878;SDS011;61999;51.514;14.614;2022-11-06T11:24:30;3.73;;;3.43;;
15878;SDS011;61999;51.514;14.614;2022-11-06T11:27:01;3.70;;;3.40;;
15878;SDS011;61999;51.514;14.614;2022-11-06T11:29:32;3.27;;;2.97;;
15878;SDS011;61999;51.514;14.614;2022-11-06T11:32:12;3.67;;;3.37;;
15878;SDS011;61999;51.514;14.614;2022-11-06T11:34:44;3.43;;;3.13;;
15878;SDS011;61999;51.514;14.614;2022-11-06T11:37:22;3.20;;;3.00;;
15878;SDS011;61999;51.514;14.614;2022-11-06T11:39:54;3.53;;;3.23;;
15878;SDS011;61999;51.514;14.614;2022-11-06T11:42:44;5.30;;;3.37;;
15878;SDS011;61999;51.514;14.614;2022-11-06T11:45:13;3.77;;;3.47;;
15878;SDS011;61999;51.514;14.614;2022-11-06T11:47:45;3.80;;;3.40;;
15878;SDS011;61999;51.514;14.614;2022-11-06T11:50:17;4.33;;;3.50;;
15878;SDS011;61999;51.514;14.614;2022-11-06T11:52:58;4.07;;;3.67;;
15878;SDS011;61999;51.514;14.614;2022-11-06T11:55:36;3.97;;;3.57;;
15878;SDS011;61999;51.514;14.614;2022-11-06T11:58:33;3.83;;;3.37;;
15878;SDS011;61999;51.514;14.614;2022-11-06T12:01:04;3.97;;;3.63;;
15878;SDS011;61999;51.514;14.614;2022-11-06T12:03:34;3.90;;;3.50;;
15878;SDS011;61999;51.514;14.614;2022-11-06T12:06:10;3.40;;;3.10;;
15878;SDS011;61999;51.514;14.614;2022-11-06T12:08:44;3.47;;;3.23;;
15878;SDS011;61999;51.514;14.614;2022-11-06T12:11:18;3.50;;;3.20;;
15878;SDS011;61999;51.514;14.614;2022-11-06T12:16:54;3.93;;;3.50;;
15878;SDS011;61999;51.514;14.614;2022-11-06T12:19:30;3.80;;;3.50;;
15878;SDS011;61999;51.514;14.614;2022-11-06T12:22:05;3.70;;;3.40;;
15878;SDS011;61999;51.514;14.614;2022-11-06T12:24:45;4.53;;;3.70;;
15878;SDS011;61999;51.514;14.614;2022-11-06T12:27:21;3.53;;;3.23;;
15878;SDS011;61999;51.514;14.614;2022-11-06T12:30:02;3.70;;;3.43;;
15878;SDS011;61999;51.514;14.614;2022-11-06T12:32:43;3.60;;;3.30;;
15878;SDS011;61999;51.514;14.614;2022-11-06T12:35:26;3.47;;;3.13;;
15878;SDS011;61999;51.514;14.614;2022-11-06T12:40:47;4.13;;;3.83;;
15878;SDS011;61999;51.514;14.614;2022-11-06T12:43:25;3.43;;;3.13;;
15878;SDS011;61999;51.514;14.614;2022-11-06T12:46:16;3.70;;;3.40;;
15878;SDS011;61999;51.514;14.614;2022-11-06T12:52:16;3.47;;;3.17;;
15878;SDS011;61999;51.514;14.614;2022-11-06T12:55:04;3.43;;;3.13;;
15878;SDS011;61999;51.514;14.614;2022-11-06T12:57:48;3.33;;;2.97;;
15878;SDS011;61999;51.514;14.614;2022-11-06T13:00:33;3.20;;;3.00;;
15878;SDS011;61999;51.514;14.614;2022-11-06T13:06:21;3.27;;;3.00;;
15878;SDS011;61999;51.514;14.614;2022-11-06T13:09:22;3.37;;;3.07;;
15878;SDS011;61999;51.514;14.614;2022-11-06T13:12:00;3.83;;;3.53;;
15878;SDS011;61999;51.514;14.614;2022-11-06T13:14:38;3.47;;;3.27;;
15878;SDS011;61999;51.514;14.614;2022-11-06T13:17:17;3.50;;;3.20;;
15878;SDS011;61999;51.514;14.614;2022-11-06T13:19:56;4.23;;;3.83;;
15878;SDS011;61999;51.514;14.614;2022-11-06T13:22:34;3.40;;;3.10;;
15878;SDS011;61999;51.514;14.614;2022-11-06T13:25:11;3.57;;;3.27;;
15878;SDS011;61999;51.514;14.614;2022-11-06T13:27:48;3.53;;;3.17;;
15878;SDS011;61999;51.514;14.614;2022-11-06T13:30:26;4.00;;;3.70;;
15878;SDS011;61999;51.514;14.614;2022-11-06T13:32:59;3.40;;;3.10;;
15878;SDS011;61999;51.514;14.614;2022-11-06T13:35:35;3.30;;;3.00;;
15878;SDS011;61999;51.514;14.614;2022-11-06T13:38:08;3.20;;;3.00;;
15878;SDS011;61999;51.514;14.614;2022-11-06T13:40:47;4.10;;;3.43;;
15878;SDS011;61999;51.514;14.614;2022-11-06T13:43:22;3.67;;;3.20;;
15878;SDS011;61999;51.514;14.614;2022-11-06T13:45:58;3.30;;;3.00;;
15878;SDS011;61999;51.514;14.614;2022-11-06T13:48:37;3.70;;;3.40;;
15878;SDS011;61999;51.514;14.614;2022-11-06T13:51:22;3.33;;;3.13;;
15878;SDS011;61999;51.514;14.614;2022-11-06T13:54:12;4.17;;;3.77;;
15878;SDS011;61999;51.514;14.614;2022-11-06T13:56:58;3.40;;;3.10;;
15878;SDS011;61999;51.514;14.614;2022-11-06T13:59:55;3.57;;;3.27;;
15878;SDS011;61999;51.514;14.614;2022-11-06T14:02:45;4.30;;;3.90;;
15878;SDS011;61999;51.514;14.614;2022-11-06T14:05:55;3.73;;;3.37;;
15878;SDS011;61999;51.514;14.614;2022-11-06T14:08:31;3.63;;;3.33;;
15878;SDS011;61999;51.514;14.614;2022-11-06T14:11:10;4.23;;;3.93;;
15878;SDS011;61999;51.514;14.614;2022-11-06T14:13:53;3.73;;;3.40;;
15878;SDS011;61999;51.514;14.614;2022-11-06T14:16:26;3.80;;;3.50;;
15878;SDS011;61999;51.514;14.614;2022-11-06T14:19:00;3.80;;;3.50;;
15878;SDS011;61999;51.514;14.614;2022-11-06T14:21:43;3.73;;;3.43;;
15878;SDS011;61999;51.514;14.614;2022-11-06T14:27:09;4.10;;;3.80;;
15878;SDS011;61999;51.514;14.614;2022-11-06T14:38:34;5.90;;;5.40;;
15878;SDS011;61999;51.514;14.614;2022-11-06T14:50:22;6.00;;;5.40;;
15878;SDS011;61999;51.514;14.614;2022-11-06T14:52:54;5.63;;;5.00;;
15878;SDS011;61999;51.514;14.614;2022-11-06T14:55:27;5.73;;;5.23;;
15878;SDS011;61999;51.514;14.614;2022-11-06T14:58:12;5.43;;;5.03;;
15878;SDS011;61999;51.514;14.614;2022-11-06T15:00:48;5.50;;;5.03;;
15878;SDS011;61999;51.514;14.614;2022-11-06T15:03:21;9.13;;;5.90;;
15878;SDS011;61999;51.514;14.614;2022-11-06T15:05:55;6.30;;;5.70;;
15878;SDS011;61999;51.514;14.614;2022-11-06T15:17:31;7.77;;;6.00;;
15878;SDS011;61999;51.514;14.614;2022-11-06T15:20:05;7.10;;;6.13;;
15878;SDS011;61999;51.514;14.614;2022-11-06T15:23:02;7.47;;;6.77;;
15878;SDS011;61999;51.514;14.614;2022-11-06T15:25:44;6.57;;;6.00;;
15878;SDS011;61999;51.514;14.614;2022-11-06T15:28:21;8.13;;;7.33;;
15878;SDS011;61999;51.514;14.614;2022-11-06T15:30:58;8.17;;;7.00;;
15878;SDS011;61999;51.514;14.614;2022-11-06T15:33:31;16.07;;;11.17;;
15878;SDS011;61999;51.514;14.614;2022-11-06T15:36:09;10.37;;;8.90;;
15878;SDS011;61999;51.514;14.614;2022-11-06T15:38:43;10.20;;;8.80;;
15878;SDS011;61999;51.514;14.614;2022-11-06T15:41:12;11.37;;;9.20;;
15878;SDS011;61999;51.514;14.614;2022-11-06T15:43:44;17.10;;;12.40;;
15878;SDS011;61999;51.514;14.614;2022-11-06T15:46:17;14.90;;;11.77;;
15878;SDS011;61999;51.514;14.614;2022-11-06T15:51:49;9.07;;;8.10;;
15878;SDS011;61999;51.514;14.614;2022-11-06T15:54:33;8.03;;;6.87;;
15878;SDS011;61999;51.514;14.614;2022-11-06T15:57:06;7.87;;;6.07;;
15878;SDS011;61999;51.514;14.614;2022-11-06T15:59:44;7.33;;;6.43;;
15878;SDS011;61999;51.514;14.614;2022-11-06T16:02:14;7.90;;;6.50;;
15878;SDS011;61999;51.514;14.614;2022-11-06T16:04:45;6.37;;;5.77;;
15878;SDS011;61999;51.514;14.614;2022-11-06T16:07:16;7.67;;;6.87;;